Time;durP1;ratioP1;P1;durP2;ratioP2;P2;SDS_P1;SDS_P2;PMS_P1;PMS_P2;Temp;Humidity;BMP_temperature;BMP_pressure;BME280_temperature;BME280_humidity;BME280_pressure;Samples;Min_cycle;Max_cycle;Signal;HPM_P1;HPM_P2
2023/04/06 00:00:59;;;;;;;8.95;3.00;;;21.10;52.70;;;;;;5009952;28;20220;-54
2023/04/06 00:03:30;;;;;;;7.88;2.50;;;21.10;52.70;;;;;;5011460;28;20688;-55
2023/04/06 00:06:02;;;;;;;7.50;2.22;;;21.10;52.60;;;;;;5009832;28;20223;-52
2023/04/06 00:08:33;;;;;;;9.95;3.03;;;21.10;52.70;;;;;;5010634;28;20208;-53
2023/04/06 00:11:04;;;;;;;8.32;2.88;;;21.10;52.60;;;;;;5010502;28;20688;-55
2023/04/06 00:13:34;;;;;;;9.98;2.70;;;21.10;52.60;;;;;;5010341;28;21398;-51
2023/04/06 00:16:05;;;;;;;12.18;3.45;;;21.10;52.60;;;;;;5010871;28;20555;-53
2023/04/06 00:18:36;;;;;;;8.10;2.65;;;21.10;52.80;;;;;;5010023;28;20196;-55
2023/04/06 00:21:09;;;;;;;7.15;2.25;;;21.10;52.90;;;;;;5010938;28;20232;-55
2023/04/06 00:23:39;;;;;;;9.75;3.17;;;21.10;53.00;;;;;;5010502;28;20207;-55
2023/04/06 00:26:10;;;;;;;8.68;2.83;;;21.10;52.70;;;;;;5011046;28;20200;-56
2023/04/06 00:28:41;;;;;;;8.50;3.40;;;21.20;52.80;;;;;;5001150;28;20201;-54
2023/04/06 00:31:12;;;;;;;8.18;2.97;;;21.20;52.80;;;;;;4990930;28;20212;-53
2023/04/06 00:33:42;;;;;;;10.68;2.72;;;21.20;52.80;;;;;;5003271;28;20240;-56
2023/04/06 00:36:15;;;;;;;6.95;2.85;;;21.20;52.70;;;;;;5013526;28;20260;-54
2023/04/06 00:38:45;;;;;;;8.82;2.85;;;21.20;52.80;;;;;;5014547;28;20228;-51
2023/04/06 00:41:16;;;;;;;7.75;2.63;;;21.20;52.70;;;;;;5013590;28;20216;-54
2023/04/06 00:43:47;;;;;;;9.45;2.88;;;21.20;52.60;;;;;;5014021;28;20270;-55
2023/04/06 00:46:17;;;;;;;8.70;2.83;;;21.20;52.70;;;;;;5013950;28;20217;-51
2023/04/06 00:48:48;;;;;;;12.40;3.10;;;21.20;52.60;;;;;;5013953;28;20211;-51
2023/04/06 00:51:20;;;;;;;7.15;2.88;;;21.20;52.60;;;;;;5013586;28;20196;-54
2023/04/06 00:53:51;;;;;;;10.15;2.90;;;21.20;52.60;;;;;;5013584;28;20196;-55
2023/04/06 00:56:23;;;;;;;10.25;3.38;;;21.20;52.70;;;;;;5013360;28;20595;-53
2023/04/06 00:58:56;;;;;;;11.50;3.28;;;21.20;52.70;;;;;;5010572;28;20228;-53
2023/04/06 01:01:28;;;;;;;13.32;3.50;;;21.30;52.70;;;;;;5009768;28;20229;-53
2023/04/06 01:03:59;;;;;;;8.48;2.83;;;21.30;52.70;;;;;;4993346;28;20256;-55
2023/04/06 01:06:31;;;;;;;11.73;3.53;;;21.30;52.60;;;;;;5010198;28;20185;-54
2023/04/06 01:09:02;;;;;;;9.43;3.15;;;21.30;52.60;;;;;;5012766;28;20201;-52
2023/04/06 01:11:32;;;;;;;10.93;3.20;;;21.30;52.60;;;;;;5012839;28;20283;-53
2023/04/06 01:14:03;;;;;;;9.70;2.92;;;21.30;52.60;;;;;;5013358;28;20657;-52
2023/04/06 01:16:33;;;;;;;10.68;3.75;;;21.30;52.60;;;;;;5013168;28;20224;-53
2023/04/06 01:19:09;;;;;;;7.78;2.85;;;21.40;52.60;;;;;;5013065;28;20201;-50
2023/04/06 01:21:42;;;;;;;8.13;2.90;;;21.40;52.60;;;;;;5013160;28;20275;-55
2023/04/06 01:24:15;;;;;;;11.57;3.40;;;21.40;52.60;;;;;;5013218;28;20193;-53
2023/04/06 01:26:46;;;;;;;8.55;2.53;;;21.40;52.60;;;;;;5012366;28;20247;-53
2023/04/06 01:29:16;;;;;;;9.77;3.53;;;21.40;52.50;;;;;;5012292;28;20221;-51
2023/04/06 01:31:47;;;;;;;11.65;3.17;;;21.40;52.50;;;;;;5012973;28;20205;-54
2023/04/06 01:34:18;;;;;;;13.70;3.60;;;21.40;52.50;;;;;;4996734;28;20552;-57
2023/04/06 01:36:49;;;;;;;10.02;3.28;;;21.40;52.50;;;;;;5012582;28;20206;-55
2023/04/06 01:39:21;;;;;;;14.98;3.83;;;21.40;52.50;;;;;;5009665;28;20823;-56
2023/04/06 01:41:52;;;;;;;10.90;3.30;;;21.40;52.40;;;;;;5012472;28;20232;-53
2023/04/06 01:44:23;;;;;;;12.63;3.97;;;21.40;52.40;;;;;;5012304;28;20739;-55
2023/04/06 01:46:53;;;;;;;10.07;3.72;;;21.40;52.40;;;;;;5012816;28;20197;-55
2023/04/06 01:49:24;;;;;;;11.05;3.50;;;21.40;52.30;;;;;;5012319;28;20270;-53
2023/04/06 01:51:54;;;;;;;8.70;2.63;;;21.40;52.30;;;;;;5012890;28;20263;-55
2023/04/06 01:54:27;;;;;;;12.93;3.58;;;21.40;52.30;;;;;;5012847;28;20208;-52
2023/04/06 01:56:57;;;;;;;8.07;2.65;;;21.50;52.30;;;;;;5012693;28;20215;-55
2023/04/06 01:59:28;;;;;;;8.98;2.78;;;21.40;52.30;;;;;;5011596;28;20213;-53
2023/04/06 02:01:58;;;;;;;9.70;3.05;;;21.50;52.30;;;;;;5012508;28;20568;-55
2023/04/06 02:04:29;;;;;;;7.63;3.17;;;21.50;52.20;;;;;;5011541;28;20205;-54
2023/04/06 02:07:00;;;;;;;11.98;3.45;;;21.50;52.20;;;;;;5012698;28;20201;-54
2023/04/06 02:09:32;;;;;;;13.95;4.13;;;21.50;52.10;;;;;;5011402;28;20231;-55
2023/04/06 02:12:03;;;;;;;13.15;3.63;;;21.50;52.10;;;;;;5012336;28;20208;-54
2023/04/06 02:14:34;;;;;;;8.30;3.03;;;21.50;52.00;;;;;;5012339;28;20197;-54
2023/04/06 02:17:04;;;;;;;15.07;3.40;;;21.50;52.00;;;;;;5012603;28;20204;-55
2023/04/06 02:19:35;;;;;;;11.73;4.20;;;21.50;52.00;;;;;;5012247;28;20858;-53
2023/04/06 02:22:05;;;;;;;11.07;3.13;;;21.40;51.90;;;;;;5011021;28;20724;-51
2023/04/06 02:24:38;;;;;;;10.30;3.03;;;21.40;51.80;;;;;;4996260;28;20653;-53
2023/04/06 02:27:09;;;;;;;10.98;2.85;;;21.50;51.90;;;;;;5011298;28;20200;-55
2023/04/06 02:29:39;;;;;;;11.48;3.47;;;21.40;51.80;;;;;;5011380;28;20225;-54
2023/04/06 02:32:10;;;;;;;10.98;3.17;;;21.40;51.80;;;;;;5011570;28;20211;-53
2023/04/06 02:34:41;;;;;;;9.30;3.42;;;21.40;51.80;;;;;;4994480;28;20198;-50
2023/04/06 02:37:11;;;;;;;9.02;3.22;;;21.40;51.80;;;;;;5011487;28;20208;-55
2023/04/06 02:39:44;;;;;;;9.75;3.58;;;21.50;51.80;;;;;;5011586;28;20228;-52
2023/04/06 02:42:15;;;;;;;9.88;3.22;;;21.40;51.70;;;;;;5011899;28;20259;-51
2023/04/06 02:44:46;;;;;;;9.40;3.17;;;21.40;51.70;;;;;;5010874;28;20339;-51
2023/04/06 02:47:16;;;;;;;11.35;3.70;;;21.40;51.70;;;;;;5011800;28;20196;-52
2023/04/06 02:49:47;;;;;;;10.25;3.33;;;21.40;51.70;;;;;;5011351;28;20244;-54
2023/04/06 02:52:18;;;;;;;7.93;2.75;;;21.40;51.70;;;;;;5011681;28;20192;-52
2023/04/06 02:54:50;;;;;;;10.85;3.33;;;21.40;51.70;;;;;;5010985;28;20290;-51
2023/04/06 02:57:21;;;;;;;10.27;3.58;;;21.40;51.70;;;;;;5011294;28;20207;-55
2023/04/06 02:59:52;;;;;;;9.88;2.97;;;21.40;51.60;;;;;;5011398;28;20217;-50
2023/04/06 03:02:23;;;;;;;9.40;2.78;;;21.40;51.60;;;;;;5011235;28;20235;-56
2023/04/06 03:04:53;;;;;;;7.78;3.13;;;21.40;51.60;;;;;;5011635;28;20211;-50
2023/04/06 03:07:24;;;;;;;9.20;3.17;;;21.40;51.60;;;;;;5011257;28;20200;-51
2023/04/06 03:09:57;;;;;;;10.73;3.00;;;21.40;51.60;;;;;;5010545;28;20221;-52
2023/04/06 03:12:27;;;;;;;8.95;3.33;;;21.40;51.60;;;;;;5010906;28;20212;-55
2023/04/06 03:14:58;;;;;;;8.95;2.97;;;21.40;51.50;;;;;;5011080;28;20205;-53
2023/04/06 03:17:29;;;;;;;9.52;2.88;;;21.40;51.60;;;;;;5011031;28;20200;-55
2023/04/06 03:19:59;;;;;;;10.85;2.95;;;21.40;51.50;;;;;;5010672;28;20217;-53
2023/04/06 03:22:31;;;;;;;10.13;3.15;;;21.40;51.50;;;;;;5011314;28;20227;-55
2023/04/06 03:25:03;;;;;;;12.57;3.30;;;21.40;51.50;;;;;;5011731;28;20205;-57
2023/04/06 03:27:34;;;;;;;7.63;2.78;;;21.30;51.50;;;;;;5002297;28;20194;-52
2023/04/06 03:30:05;;;;;;;8.63;3.13;;;21.30;51.50;;;;;;4991691;28;20217;-54
2023/04/06 03:32:35;;;;;;;6.50;2.45;;;21.30;51.50;;;;;;4993874;28;20197;-54
2023/04/06 03:35:06;;;;;;;9.23;3.38;;;21.30;51.50;;;;;;5003437;28;20475;-54
2023/04/06 03:37:36;;;;;;;11.65;3.05;;;21.30;51.50;;;;;;5011142;28;20203;-53
2023/04/06 03:40:10;;;;;;;9.82;3.13;;;21.30;51.50;;;;;;5007787;28;20213;-53
2023/04/06 03:42:40;;;;;;;11.30;3.20;;;21.30;51.50;;;;;;5009885;28;20243;-52
2023/04/06 03:45:12;;;;;;;9.05;3.47;;;21.30;51.50;;;;;;5010823;28;20201;-54
2023/04/06 03:47:43;;;;;;;8.27;3.00;;;21.30;51.40;;;;;;5010848;28;20661;-55
2023/04/06 03:50:14;;;;;;;13.18;3.63;;;21.30;51.50;;;;;;5010352;28;20221;-57
2023/04/06 03:52:44;;;;;;;9.43;3.42;;;21.30;51.50;;;;;;5010042;28;20201;-53
2023/04/06 03:55:17;;;;;;;8.70;2.83;;;21.30;51.50;;;;;;5010725;28;20193;-52
2023/04/06 03:57:48;;;;;;;11.00;3.15;;;21.30;51.50;;;;;;5009969;28;20688;-56
2023/04/06 04:00:19;;;;;;;10.00;3.28;;;21.30;51.50;;;;;;5010316;28;20217;-55
2023/04/06 04:02:49;;;;;;;11.90;3.80;;;21.20;51.40;;;;;;5010339;28;20229;-57
2023/04/06 04:05:24;;;;;;;7.78;3.00;;;21.20;51.40;;;;;;5010757;28;20235;-56
2023/04/06 04:07:55;;;;;;;12.30;3.88;;;21.20;51.40;;;;;;5011942;28;20196;-52
2023/04/06 04:10:28;;;;;;;11.27;3.95;;;21.20;51.40;;;;;;5013672;28;20218;-52
2023/04/06 04:12:58;;;;;;;9.43;3.00;;;21.20;51.40;;;;;;5003865;28;20198;-52
2023/04/06 04:15:29;;;;;;;9.48;3.30;;;21.20;51.40;;;;;;4999844;28;20200;-55
2023/04/06 04:18:00;;;;;;;9.15;3.20;;;21.20;51.40;;;;;;5014634;28;20204;-56
2023/04/06 04:20:30;;;;;;;9.43;3.97;;;21.20;51.40;;;;;;5013075;28;20925;-54
2023/04/06 04:23:01;;;;;;;10.68;3.50;;;21.20;52.00;;;;;;4994670;28;20732;-53
2023/04/06 04:25:33;;;;;;;8.57;3.40;;;21.10;51.40;;;;;;4994083;28;20200;-53
2023/04/06 04:28:04;;;;;;;9.60;3.30;;;21.10;51.40;;;;;;4994251;28;20677;-54
2023/04/06 04:30:35;;;;;;;10.57;3.55;;;21.10;51.40;;;;;;4994523;28;20217;-56
2023/04/06 04:33:05;;;;;;;14.27;3.95;;;21.10;51.40;;;;;;5005993;28;20200;-54
2023/04/06 04:35:36;;;;;;;11.90;3.90;;;21.10;51.40;;;;;;5013487;28;20576;-56
2023/04/06 04:38:10;;;;;;;13.63;3.58;;;21.10;51.40;;;;;;5014290;28;20576;-53
2023/04/06 04:40:42;;;;;;;15.57;4.25;;;21.10;51.40;;;;;;5012438;28;20209;-56
2023/04/06 04:43:13;;;;;;;9.65;3.63;;;21.10;51.40;;;;;;5003307;28;20225;-54
2023/04/06 04:45:43;;;;;;;12.00;4.28;;;21.10;51.40;;;;;;4994638;28;20833;-51
2023/04/06 04:48:14;;;;;;;13.00;4.45;;;21.10;51.40;;;;;;4994192;28;20197;-54
2023/04/06 04:50:45;;;;;;;13.00;4.32;;;21.10;51.40;;;;;;4994132;28;20232;-53
2023/04/06 04:53:15;;;;;;;13.48;4.88;;;21.10;51.40;;;;;;4994162;28;20201;-51
2023/04/06 04:55:48;;;;;;;11.00;4.22;;;21.00;51.40;;;;;;4994724;28;20739;-54
2023/04/06 04:58:19;;;;;;;14.88;4.28;;;21.00;51.40;;;;;;5013860;28;20201;-54
2023/04/06 05:00:50;;;;;;;11.60;3.83;;;21.00;51.40;;;;;;5013847;28;20259;-56
2023/04/06 05:03:25;;;;;;;9.13;4.18;;;21.00;51.40;;;;;;5013418;28;20255;-52
2023/04/06 05:05:56;;;;;;;14.57;4.25;;;21.00;51.50;;;;;;5013462;28;20195;-54
2023/04/06 05:08:26;;;;;;;13.50;4.07;;;20.90;51.40;;;;;;5013432;28;20197;-51
2023/04/06 05:10:59;;;;;;;13.43;4.13;;;20.90;51.40;;;;;;5013745;28;20248;-52
2023/04/06 05:13:30;;;;;;;10.27;4.40;;;21.00;51.50;;;;;;5013244;28;20205;-53
2023/04/06 05:16:00;;;;;;;9.75;3.72;;;20.90;51.40;;;;;;5012913;28;20193;-53
2023/04/06 05:18:31;;;;;;;10.15;3.60;;;20.90;51.40;;;;;;5013190;28;20197;-54
2023/04/06 05:21:02;;;;;;;10.98;3.85;;;20.90;51.40;;;;;;5012402;28;20551;-51
2023/04/06 05:23:33;;;;;;;9.70;3.63;;;20.90;51.40;;;;;;5013821;28;20239;-54
2023/04/06 05:26:05;;;;;;;17.17;4.53;;;20.90;51.50;;;;;;5013178;28;20751;-56
2023/04/06 05:28:36;;;;;;;18.10;4.22;;;20.90;51.50;;;;;;5011352;28;20201;-55
2023/04/06 05:31:07;;;;;;;20.90;5.15;;;20.90;51.70;;;;;;4993089;28;20216;-55
2023/04/06 05:33:38;;;;;;;13.50;4.07;;;20.90;51.70;;;;;;4995893;28;20194;-53
2023/04/06 05:36:09;;;;;;;17.45;4.10;;;20.90;51.70;;;;;;5007219;28;20212;-55
2023/04/06 05:38:39;;;;;;;15.02;4.13;;;20.90;51.80;;;;;;5013455;28;20552;-55
2023/04/06 05:41:12;;;;;;;16.83;4.68;;;20.90;51.70;;;;;;5012388;28;20220;-52
2023/04/06 05:43:43;;;;;;;8.20;4.05;;;20.90;51.80;;;;;;5012655;28;20224;-50
2023/04/06 05:46:13;;;;;;;14.18;4.18;;;20.80;51.80;;;;;;5012492;28;20195;-55
2023/04/06 05:48:44;;;;;;;11.73;3.72;;;20.90;52.00;;;;;;5012456;28;20197;-55
2023/04/06 05:51:15;;;;;;;10.65;4.55;;;20.80;52.00;;;;;;5012194;28;20216;-59
2023/04/06 05:53:47;;;;;;;9.23;3.65;;;20.80;51.90;;;;;;5012706;28;20205;-52
2023/04/06 05:56:20;;;;;;;10.73;3.88;;;20.80;51.90;;;;;;5011784;28;20196;-54
2023/04/06 05:58:50;;;;;;;14.55;4.32;;;20.80;51.90;;;;;;5012029;28;20200;-56
2023/04/06 06:01:21;;;;;;;13.57;4.18;;;20.80;51.90;;;;;;5012335;28;20193;-55
2023/04/06 06:03:52;;;;;;;12.23;3.67;;;20.80;52.00;;;;;;5012211;28;20225;-55
2023/04/06 06:06:22;;;;;;;8.77;3.30;;;20.80;52.00;;;;;;5012166;28;20196;-54
2023/04/06 06:08:53;;;;;;;9.48;3.42;;;20.80;52.00;;;;;;5004406;28;20923;-54
2023/04/06 06:11:26;;;;;;;9.00;3.67;;;20.80;52.00;;;;;;4992868;28;20193;-56
2023/04/06 06:13:56;;;;;;;13.15;4.40;;;20.80;52.00;;;;;;4995104;28;20219;-54
2023/04/06 06:16:27;;;;;;;13.75;4.60;;;20.80;52.00;;;;;;5012430;28;20204;-54
2023/04/06 06:18:58;;;;;;;9.50;3.47;;;20.80;52.00;;;;;;5012733;28;20197;-56
2023/04/06 06:21:28;;;;;;;9.38;3.50;;;20.70;52.00;;;;;;5010494;28;20197;-55
2023/04/06 06:23:59;;;;;;;6.95;3.10;;;20.70;52.00;;;;;;5012247;28;20243;-58
2023/04/06 06:26:32;;;;;;;10.18;2.88;;;20.70;52.00;;;;;;5012579;28;20215;-55
2023/04/06 06:29:02;;;;;;;7.05;3.25;;;20.70;52.10;;;;;;5012139;28;20200;-57
2023/04/06 06:31:33;;;;;;;7.97;3.17;;;20.70;52.00;;;;;;5011160;28;20197;-54
2023/04/06 06:34:04;;;;;;;8.50;3.65;;;20.70;52.00;;;;;;4997751;28;20197;-56
2023/04/06 06:36:35;;;;;;;7.40;2.60;;;20.70;52.00;;;;;;5009870;28;20200;-55
2023/04/06 06:39:05;;;;;;;6.25;2.95;;;20.60;51.90;;;;;;4999446;28;20189;-49
2023/04/06 06:41:38;;;;;;;8.07;3.13;;;20.60;51.90;;;;;;5011259;28;20200;-52
2023/04/06 06:44:09;;;;;;;8.10;3.03;;;20.60;52.00;;;;;;5011218;28;20231;-51
2023/04/06 06:46:41;;;;;;;8.00;2.95;;;20.60;52.00;;;;;;5011726;28;20185;-51
2023/04/06 06:49:12;;;;;;;6.53;2.60;;;20.60;52.00;;;;;;5010908;28;20201;-55
2023/04/06 06:51:43;;;;;;;5.68;2.50;;;20.60;52.00;;;;;;5011785;28;20220;-56
2023/04/06 06:54:14;;;;;;;5.88;2.58;;;20.70;52.10;;;;;;5011587;28;20216;-55
2023/04/06 06:56:46;;;;;;;5.47;2.83;;;20.60;52.00;;;;;;5011845;28;20653;-52
2023/04/06 06:59:17;;;;;;;8.13;2.78;;;20.60;52.00;;;;;;5011450;28;20227;-56
2023/04/06 07:01:48;;;;;;;7.15;2.78;;;20.60;52.00;;;;;;5011502;28;20266;-54
2023/04/06 07:04:19;;;;;;;7.47;2.83;;;20.60;52.10;;;;;;5011111;28;20227;-53
2023/04/06 07:06:50;;;;;;;7.68;2.65;;;20.50;52.10;;;;;;5010351;28;20204;-53
2023/04/06 07:09:21;;;;;;;5.50;2.47;;;20.60;52.20;;;;;;5010579;28;20224;-57
2023/04/06 07:11:53;;;;;;;7.15;2.60;;;20.50;52.20;;;;;;5010706;28;20193;-54
2023/04/06 07:14:24;;;;;;;5.80;2.67;;;20.50;52.10;;;;;;5010406;28;20196;-54
2023/04/06 07:16:54;;;;;;;4.97;2.60;;;20.50;52.20;;;;;;5010439;28;20195;-55
2023/04/06 07:19:25;;;;;;;6.90;2.28;;;20.50;52.20;;;;;;5010834;28;20221;-53
2023/04/06 07:21:56;;;;;;;5.70;2.58;;;20.50;52.20;;;;;;5009940;28;20223;-55
2023/04/06 07:24:26;;;;;;;7.32;2.83;;;20.50;52.20;;;;;;5008403;28;20224;-54
2023/04/06 07:27:00;;;;;;;4.00;2.20;;;20.40;52.10;;;;;;5011215;28;20185;-56
2023/04/06 07:29:31;;;;;;;4.13;2.03;;;20.40;52.10;;;;;;5010276;28;20221;-55
2023/04/06 07:32:01;;;;;;;6.53;2.42;;;20.40;52.10;;;;;;5010899;28;20192;-55
2023/04/06 07:34:32;;;;;;;6.55;2.75;;;20.40;52.20;;;;;;4992966;28;20204;-56
2023/04/06 07:37:03;;;;;;;3.97;2.00;;;20.40;52.20;;;;;;5001167;28;20713;-53
2023/04/06 07:39:33;;;;;;;5.40;2.00;;;20.40;52.30;;;;;;5008959;28;20231;-56
2023/04/06 07:42:06;;;;;;;5.60;2.63;;;20.30;52.20;;;;;;5006676;28;20669;-56
2023/04/06 07:44:37;;;;;;;5.55;2.33;;;20.30;52.20;;;;;;4994655;28;20231;-56
2023/04/06 07:47:07;;;;;;;4.07;2.53;;;20.30;52.20;;;;;;4995043;28;20189;-56
2023/04/06 07:49:38;;;;;;;4.20;2.25;;;20.30;52.20;;;;;;5000034;28;20700;-54
2023/04/06 07:52:09;;;;;;;4.05;2.22;;;20.30;52.30;;;;;;5015532;28;20196;-51
2023/04/06 07:54:39;;;;;;;4.60;2.03;;;20.20;52.20;;;;;;5015385;28;20193;-55
2023/04/06 07:57:12;;;;;;;3.53;1.92;;;20.20;52.20;;;;;;5015414;28;20212;-54
2023/04/06 07:59:42;;;;;;;4.07;2.03;;;20.20;52.30;;;;;;5014909;28;20220;-54
2023/04/06 08:02:13;;;;;;;6.15;2.42;;;20.20;52.30;;;;;;5014963;28;20676;-55
2023/04/06 08:04:44;;;;;;;6.30;2.28;;;20.20;52.20;;;;;;5006240;28;20586;-54
2023/04/06 08:07:14;;;;;;;4.32;2.20;;;20.10;52.20;;;;;;5014766;28;20201;-55
2023/04/06 08:09:45;;;;;;;3.63;1.80;;;20.20;52.30;;;;;;5015081;28;20217;-54
2023/04/06 08:12:18;;;;;;;4.70;2.10;;;20.20;52.30;;;;;;5015277;28;20205;-56
2023/04/06 08:14:48;;;;;;;3.92;1.80;;;20.20;52.30;;;;;;5015063;28;20663;-55
2023/04/06 08:17:19;;;;;;;4.60;1.85;;;20.10;52.20;;;;;;5015470;28;20211;-55
2023/04/06 08:19:50;;;;;;;4.50;2.20;;;20.10;52.30;;;;;;5007871;28;20299;-55
2023/04/06 08:22:20;;;;;;;4.15;2.20;;;20.10;52.30;;;;;;4995442;28;20204;-56
2023/04/06 08:24:51;;;;;;;4.70;1.90;;;20.10;52.30;;;;;;4995054;28;20225;-56
2023/04/06 08:27:24;;;;;;;3.45;1.90;;;20.00;52.30;;;;;;4995013;28;20209;-55
2023/04/06 08:29:54;;;;;;;4.53;1.70;;;20.00;52.30;;;;;;4995539;28;20224;-56
2023/04/06 08:32:25;;;;;;;3.13;1.58;;;20.00;52.30;;;;;;5010112;28;20193;-55
2023/04/06 08:34:57;;;;;;;3.85;1.75;;;20.00;52.30;;;;;;5014839;28;20568;-55
2023/04/06 08:37:28;;;;;;;5.85;2.10;;;20.00;52.30;;;;;;5014394;28;20193;-56
2023/04/06 08:40:00;;;;;;;3.33;1.55;;;20.00;52.30;;;;;;5015264;28;20212;-54
2023/04/06 08:42:35;;;;;;;3.78;1.63;;;19.90;52.30;;;;;;5014843;28;20205;-56
2023/04/06 08:45:07;;;;;;;4.25;2.00;;;20.00;52.30;;;;;;5014850;28;20224;-53
2023/04/06 08:47:39;;;;;;;3.15;1.75;;;19.90;52.30;;;;;;5014812;28;20204;-57
2023/04/06 08:50:11;;;;;;;6.70;1.88;;;19.90;52.30;;;;;;5015229;28;20220;-54
2023/04/06 08:52:42;;;;;;;4.53;2.15;;;19.90;52.30;;;;;;5014614;28;20197;-54
2023/04/06 08:55:13;;;;;;;4.05;1.90;;;19.90;52.30;;;;;;5013681;28;20205;-55
2023/04/06 08:57:46;;;;;;;3.50;1.92;;;19.90;52.30;;;;;;5013828;28;20205;-55
2023/04/06 09:00:19;;;;;;;4.78;1.70;;;19.90;52.30;;;;;;5006872;28;20656;-56
2023/04/06 09:02:51;;;;;;;2.95;1.70;;;19.90;52.40;;;;;;5013474;28;20197;-54
2023/04/06 09:05:23;;;;;;;3.63;1.77;;;19.90;52.40;;;;;;5011205;28;20216;-55
2023/04/06 09:07:53;;;;;;;4.75;1.98;;;19.90;53.00;;;;;;4994125;28;20212;-56
2023/04/06 09:10:25;;;;;;;3.85;1.90;;;19.80;52.40;;;;;;4992944;28;20224;-56
2023/04/06 09:13:07;;;;;;;4.15;1.90;;;19.80;52.40;;;;;;4996377;28;20197;-53
2023/04/06 09:15:38;;;;;;;2.15;1.50;;;19.80;52.40;;;;;;5008199;28;20204;-55
2023/04/06 09:18:08;;;;;;;5.55;2.20;;;19.80;52.40;;;;;;5011137;28;20675;-50
2023/04/06 09:20:39;;;;;;;3.30;2.13;;;19.80;52.40;;;;;;5010525;28;20224;-52
2023/04/06 09:23:19;;;;;;;3.67;1.95;;;19.80;52.40;;;;;;5010312;28;20201;-52
2023/04/06 09:25:50;;;;;;;5.18;2.15;;;19.80;52.40;;;;;;5011138;28;20199;-53
2023/04/06 09:28:22;;;;;;;2.78;1.80;;;19.70;52.30;;;;;;5010174;28;20541;-54
2023/04/06 09:30:53;;;;;;;3.22;1.83;;;19.80;52.30;;;;;;4992491;28;20221;-54
2023/04/06 09:33:26;;;;;;;3.88;1.67;;;19.80;52.40;;;;;;4990912;28;20217;-54
2023/04/06 09:35:57;;;;;;;2.95;1.63;;;19.70;52.40;;;;;;5001885;28;20228;-53
2023/04/06 09:38:28;;;;;;;4.03;1.80;;;19.70;52.30;;;;;;5011700;28;20676;-55
2023/04/06 09:40:58;;;;;;;3.40;1.75;;;19.70;52.30;;;;;;4991292;28;20309;-54
2023/04/06 09:43:32;;;;;;;4.22;1.80;;;19.70;53.00;;;;;;4991006;28;20212;-54
2023/04/06 09:46:05;;;;;;;3.30;1.58;;;19.70;52.30;;;;;;4990822;28;20780;-55
2023/04/06 09:48:38;;;;;;;3.50;1.90;;;19.70;52.30;;;;;;4990812;28;20209;-53
2023/04/06 09:51:13;;;;;;;2.25;1.55;;;19.60;52.30;;;;;;4990315;28;20233;-52
2023/04/06 09:53:47;;;;;;;3.17;1.60;;;19.60;52.30;;;;;;4991164;28;20729;-55
2023/04/06 09:56:23;;;;;;;3.35;1.58;;;19.60;52.30;;;;;;5008224;28;20224;-53
2023/04/06 09:59:00;;;;;;;4.13;1.70;;;19.60;52.30;;;;;;5009975;28;20205;-54
2023/04/06 10:01:34;;;;;;;3.45;1.70;;;19.60;52.30;;;;;;5009350;28;20201;-55
2023/04/06 10:04:22;;;;;;;2.83;1.58;;;19.60;52.30;;;;;;5009521;28;20213;-54
2023/04/06 10:06:53;;;;;;;2.13;1.27;;;19.60;52.30;;;;;;4989677;28;20235;-54
2023/04/06 10:09:28;;;;;;;2.47;1.73;;;19.60;52.30;;;;;;4990465;28;20217;-55
2023/04/06 10:12:00;;;;;;;3.65;1.75;;;19.60;52.30;;;;;;4993283;28;20200;-52
2023/04/06 10:14:36;;;;;;;2.28;1.45;;;19.60;52.30;;;;;;4990229;28;20641;-54
2023/04/06 10:17:07;;;;;;;2.42;1.58;;;19.60;52.30;;;;;;4994506;28;20196;-54
2023/04/06 10:19:52;;;;;;;2.58;1.67;;;19.60;52.30;;;;;;4995753;28;20589;-55
2023/04/06 10:22:30;;;;;;;2.75;1.33;;;19.60;52.30;;;;;;5011019;28;20208;-53
2023/04/06 10:25:01;;;;;;;3.50;1.63;;;19.50;52.30;;;;;;5011368;28;20224;-55
2023/04/06 10:27:32;;;;;;;2.08;1.38;;;19.50;52.30;;;;;;5012277;28;20561;-52
2023/04/06 10:30:08;;;;;;;2.75;1.67;;;19.50;52.30;;;;;;5011941;28;20919;-52
2023/04/06 10:32:41;;;;;;;1.98;1.50;;;19.50;52.30;;;;;;5012249;28;20192;-53
2023/04/06 10:35:14;;;;;;;3.58;1.90;;;19.50;52.30;;;;;;5011408;28;20197;-52
2023/04/06 10:37:54;;;;;;;3.85;1.95;;;19.50;52.30;;;;;;5011949;28;20204;-53
2023/04/06 10:40:31;;;;;;;2.58;1.50;;;19.50;52.30;;;;;;5009764;28;20697;-53
2023/04/06 10:43:11;;;;;;;2.25;1.25;;;19.50;52.30;;;;;;5011767;28;20236;-53
2023/04/06 10:45:44;;;;;;;2.97;1.50;;;19.50;52.30;;;;;;5011402;28;20224;-51
2023/04/06 10:48:19;;;;;;;1.88;1.40;;;19.50;52.40;;;;;;5011944;28;20280;-55
2023/04/06 10:50:51;;;;;;;3.08;1.55;;;19.50;52.30;;;;;;5011724;28;20219;-53
2023/04/06 10:53:26;;;;;;;1.60;1.27;;;19.50;52.40;;;;;;5011668;28;20201;-54
2023/04/06 10:56:00;;;;;;;2.13;1.60;;;19.50;52.30;;;;;;4996394;28;20208;-53
2023/04/06 10:58:31;;;;;;;2.55;1.60;;;19.40;52.30;;;;;;4991566;28;20208;-54
2023/04/06 11:01:04;;;;;;;2.60;1.33;;;19.40;52.30;;;;;;4992449;28;20218;-53
2023/04/06 11:03:44;;;;;;;2.97;1.20;;;19.40;52.30;;;;;;4991895;28;20221;-55
2023/04/06 11:06:22;;;;;;;2.20;1.58;;;19.40;52.30;;;;;;5006568;28;20204;-54
2023/04/06 11:08:53;;;;;;;2.35;1.58;;;19.40;52.30;;;;;;5000857;28;20208;-53
2023/04/06 11:11:26;;;;;;;2.65;1.33;;;19.40;52.30;;;;;;5011011;28;20653;-55
2023/04/06 11:13:57;;;;;;;2.30;1.45;;;19.40;52.40;;;;;;5011656;28;20637;-53
2023/04/06 11:16:32;;;;;;;2.90;1.50;;;19.40;52.30;;;;;;5011621;28;20192;-54
2023/04/06 11:19:03;;;;;;;1.65;1.25;;;19.40;52.30;;;;;;5011512;28;20196;-55
2023/04/06 11:21:39;;;;;;;2.80;1.40;;;19.40;52.30;;;;;;5003879;28;20197;-55
2023/04/06 11:24:14;;;;;;;1.60;1.27;;;19.40;52.30;;;;;;4999699;28;20724;-55
2023/04/06 11:26:47;;;;;;;3.08;1.30;;;19.40;52.30;;;;;;5000485;28;20189;-56
2023/04/06 11:29:18;;;;;;;2.05;1.00;;;19.40;52.30;;;;;;5008096;28;20213;-54
2023/04/06 11:31:52;;;;;;;1.98;1.20;;;19.40;52.30;;;;;;5010355;28;20201;-55
2023/04/06 11:34:23;;;;;;;2.28;1.20;;;19.40;52.30;;;;;;5008528;28;20196;-55
2023/04/06 11:36:58;;;;;;;2.53;1.40;;;19.40;52.30;;;;;;5007673;28;20189;-56
2023/04/06 11:39:30;;;;;;;1.63;1.27;;;19.30;52.30;;;;;;5010937;28;20221;-57
2023/04/06 11:42:03;;;;;;;2.10;1.40;;;19.30;52.30;;;;;;5010838;28;20185;-56
2023/04/06 11:44:36;;;;;;;3.72;1.67;;;19.30;52.30;;;;;;5010060;28;20701;-57
2023/04/06 11:47:09;;;;;;;1.75;1.27;;;19.30;52.40;;;;;;5007675;28;20200;-55
2023/04/06 11:49:41;;;;;;;2.63;1.50;;;19.30;52.30;;;;;;5010428;28;20219;-56
2023/04/06 11:52:20;;;;;;;1.60;1.10;;;19.30;52.30;;;;;;5010346;28;20206;-56
2023/04/06 11:54:51;;;;;;;2.42;1.30;;;19.30;52.30;;;;;;5008670;28;20195;-54
2023/04/06 11:57:25;;;;;;;2.50;1.48;;;19.30;52.30;;;;;;5010521;28;20185;-51
2023/04/06 11:59:55;;;;;;;1.80;1.17;;;19.30;52.30;;;;;;5010208;28;20255;-54
2023/04/06 12:02:28;;;;;;;2.50;1.55;;;19.30;52.30;;;;;;5007730;28;20197;-54
2023/04/06 12:04:59;;;;;;;2.97;1.65;;;19.30;52.30;;;;;;5010247;28;20235;-53
2023/04/06 12:07:30;;;;;;;1.90;1.30;;;19.20;52.30;;;;;;5011071;28;20197;-54
2023/04/06 12:10:01;;;;;;;2.08;1.25;;;19.20;52.20;;;;;;5010662;28;20608;-56
2023/04/06 12:12:32;;;;;;;1.85;1.33;;;19.20;52.20;;;;;;5009816;28;20204;-54
2023/04/06 12:15:02;;;;;;;2.58;1.50;;;19.20;52.20;;;;;;5009372;28;20216;-54
2023/04/06 12:17:35;;;;;;;2.45;1.20;;;19.20;52.20;;;;;;5011140;28;20223;-56
2023/04/06 12:20:06;;;;;;;1.70;1.30;;;19.20;52.20;;;;;;5008765;28;20221;-56
2023/04/06 12:22:36;;;;;;;1.65;1.02;;;19.20;52.20;;;;;;4991446;28;20201;-56
2023/04/06 12:25:08;;;;;;;2.03;1.20;;;19.20;52.20;;;;;;4991388;28;20222;-56
2023/04/06 12:27:39;;;;;;;2.42;1.15;;;19.20;52.20;;;;;;4991342;28;20283;-53
2023/04/06 12:30:10;;;;;;;1.95;1.20;;;19.20;52.20;;;;;;4994563;28;20423;-54
2023/04/06 12:32:43;;;;;;;2.15;1.10;;;19.20;52.30;;;;;;4995354;28;20205;-56
2023/04/06 12:35:15;;;;;;;1.63;1.30;;;19.20;52.30;;;;;;5001650;28;20201;-57
2023/04/06 12:37:46;;;;;;;1.48;1.13;;;19.10;52.20;;;;;;5014613;28;20197;-56
2023/04/06 12:40:16;;;;;;;1.85;1.08;;;19.10;52.20;;;;;;5014745;28;20224;-53
2023/04/06 12:42:47;;;;;;;1.30;1.10;;;19.20;52.20;;;;;;5014638;28;20683;-56
2023/04/06 12:45:18;;;;;;;1.17;1.02;;;19.10;52.20;;;;;;5014350;28;20267;-54
2023/04/06 12:47:50;;;;;;;1.33;1.05;;;19.10;52.20;;;;;;5012421;28;20204;-56
2023/04/06 12:50:21;;;;;;;2.28;1.13;;;19.10;52.20;;;;;;5014061;28;20213;-56
2023/04/06 12:52:52;;;;;;;1.50;1.38;;;19.10;52.20;;;;;;5014165;28;20219;-56
2023/04/06 12:55:23;;;;;;;1.42;1.20;;;19.10;52.20;;;;;;5014762;28;20200;-56
2023/04/06 12:57:54;;;;;;;1.75;1.10;;;19.10;52.20;;;;;;5014379;28;20232;-55
2023/04/06 13:00:25;;;;;;;1.80;1.20;;;19.10;52.20;;;;;;5013658;28;20251;-53
2023/04/06 13:02:58;;;;;;;2.55;1.40;;;19.10;52.20;;;;;;5014326;28;20657;-56
2023/04/06 13:05:28;;;;;;;1.35;0.90;;;19.10;52.20;;;;;;5013818;28;20252;-55